createdAt,value
2019-02-05T00:00:36.555Z,3.08
2019-02-05T00:01:36.896Z,3.08
2019-02-05T00:02:36.912Z,3.08
2019-02-05T00:03:38.049Z,3.09
2019-02-05T00:04:38.069Z,3.09
2019-02-05T00:05:38.700Z,3.09
2019-02-05T00:06:39.125Z,3.10
2019-02-05T00:07:39.023Z,3.10
2019-02-05T00:08:39.834Z,3.11
2019-02-05T00:09:40.415Z,3.11
2019-02-05T00:10:40.955Z,3.12
2019-02-05T00:11:41.757Z,3.12
2019-02-05T00:12:42.249Z,3.13
2019-02-05T00:13:43.685Z,3.14
2019-02-05T00:14:43.364Z,3.15
2019-02-05T00:15:43.579Z,3.16
2019-02-05T00:16:43.861Z,3.17
2019-02-05T00:17:44.623Z,3.18
2019-02-05T00:18:45.491Z,3.19
2019-02-05T00:19:45.995Z,3.20
2019-02-05T00:20:46.817Z,3.21
2019-02-05T00:21:47.645Z,3.22
2019-02-05T00:22:47.991Z,3.23
2019-02-05T00:23:48.705Z,3.23
2019-02-05T00:24:50.211Z,3.24
2019-02-05T00:25:50.687Z,3.25
2019-02-05T00:26:51.253Z,3.25
2019-02-05T00:27:50.611Z,3.26
2019-02-05T00:28:52.285Z,3.27
2019-02-05T00:29:52.750Z,3.27
2019-02-05T00:30:53.447Z,3.28
2019-02-05T00:31:53.039Z,3.29
2019-02-05T00:32:53.930Z,3.29
2019-02-05T00:33:55.750Z,3.30
2019-02-05T00:34:56.361Z,3.31
2019-02-05T00:35:56.844Z,3.31
2019-02-05T00:36:57.364Z,3.32
2019-02-05T00:37:57.397Z,3.33
2019-02-05T00:38:57.813Z,3.33
2019-02-05T00:39:58.612Z,3.34
2019-02-05T00:40:59.258Z,3.34
2019-02-05T00:41:59.746Z,3.34
2019-02-05T00:43:00.705Z,3.34
2019-02-05T00:44:01.397Z,3.35
2019-02-05T00:45:01.174Z,3.35
2019-02-05T00:46:01.634Z,3.35
2019-02-05T00:47:03.267Z,3.36
2019-02-05T00:48:02.739Z,3.37
2019-02-05T00:49:04.240Z,3.37
2019-02-05T00:50:04.648Z,3.38
2019-02-05T00:51:05.034Z,3.38
2019-02-05T00:52:05.935Z,3.39
2019-02-05T00:53:05.387Z,3.39
2019-02-05T00:54:06.702Z,3.40
2019-02-05T00:55:07.117Z,3.40
2019-02-05T00:56:17.406Z,3.40
2019-02-05T00:57:07.758Z,3.41
2019-02-05T00:58:09.224Z,3.41
2019-02-05T00:59:09.636Z,3.41
2019-02-05T01:00:10.031Z,3.41
2019-02-05T01:01:09.567Z,3.42
2019-02-05T01:02:11.081Z,3.42
2019-02-05T01:02:20.156Z,3.47
2019-02-05T01:03:20.754Z,3.46
2019-02-05T01:04:22.235Z,3.46
2019-02-05T01:05:22.663Z,3.46
2019-02-05T01:06:23.164Z,3.46
2019-02-05T01:07:23.599Z,3.46
2019-02-05T01:08:24.070Z,3.47
2019-02-05T01:09:24.578Z,3.47
2019-02-05T01:10:25.316Z,3.47
2019-02-05T01:11:25.087Z,3.48
2019-02-05T01:12:26.781Z,3.48
2019-02-05T01:13:27.287Z,3.48
2019-02-05T01:14:27.872Z,3.49
2019-02-05T01:15:28.366Z,3.49
2019-02-05T01:16:29.038Z,3.50
2019-02-05T01:17:29.701Z,3.50
2019-02-05T01:18:30.177Z,3.50
2019-02-05T01:19:29.595Z,3.50
2019-02-05T01:20:30.952Z,3.50
2019-02-05T01:21:31.632Z,3.50
2019-02-05T01:22:31.751Z,3.49
2019-02-05T01:23:32.166Z,3.49
2019-02-05T01:24:32.614Z,3.49
2019-02-05T01:25:33.325Z,3.49
2019-02-05T01:26:32.641Z,3.49
2019-02-05T01:27:32.749Z,3.49
2019-02-05T01:28:32.737Z,3.50
2019-02-05T01:29:33.676Z,3.50
2019-02-05T01:30:34.491Z,3.51
2019-02-05T01:31:35.466Z,3.52
2019-02-05T01:32:35.767Z,3.52
2019-02-05T01:33:38.099Z,3.53
2019-02-05T01:34:37.234Z,3.53
2019-02-05T01:35:38.723Z,3.53
2019-02-05T01:36:37.738Z,3.54
2019-02-05T01:37:39.516Z,3.54
2019-02-05T01:38:40.296Z,3.54
2019-02-05T01:39:39.495Z,3.54
2019-02-05T01:40:40.426Z,3.54
2019-02-05T01:41:41.118Z,3.55
2019-02-05T01:42:41.396Z,3.55
2019-02-05T01:43:43.205Z,3.55
2019-02-05T01:44:42.806Z,3.55
2019-02-05T01:45:43.285Z,3.55
2019-02-05T01:46:44.750Z,3.55
2019-02-05T01:47:45.920Z,3.55
2019-02-05T01:48:45.644Z,3.55
2019-02-05T01:49:45.921Z,3.55
2019-02-05T01:50:46.452Z,3.55
2019-02-05T01:51:46.452Z,3.55
2019-02-05T01:52:46.799Z,3.55
2019-02-05T01:53:47.638Z,3.55
2019-02-05T01:54:49.072Z,3.55
2019-02-05T01:55:48.651Z,3.55
2019-02-05T01:56:48.943Z,3.54
2019-02-05T01:57:51.047Z,3.54
2019-02-05T01:58:50.421Z,3.54
2019-02-05T01:59:51.513Z,3.54
2019-02-05T02:00:52.109Z,3.53
2019-02-05T02:01:52.732Z,3.53
2019-02-05T02:02:53.024Z,3.53
2019-02-05T02:03:53.307Z,3.53
2019-02-05T02:04:53.735Z,3.52
2019-02-05T02:05:54.205Z,3.52
2019-02-05T02:06:54.749Z,3.52
2019-02-05T02:07:55.131Z,3.52
2019-02-05T02:08:56.311Z,3.52
2019-02-05T02:09:56.474Z,3.52
2019-02-05T02:10:56.448Z,3.52
2019-02-05T02:11:57.916Z,3.52
2019-02-05T02:12:58.699Z,3.52
2019-02-05T02:13:59.123Z,3.52
2019-02-05T02:14:59.531Z,3.52
2019-02-05T02:15:59.939Z,3.52
2019-02-05T02:16:09.016Z,3.56
2019-02-05T02:17:10.280Z,3.55
2019-02-05T02:18:10.871Z,3.55
2019-02-05T02:19:10.402Z,3.55
2019-02-05T02:20:11.798Z,3.55
2019-02-05T02:21:12.699Z,3.55
2019-02-05T02:22:11.996Z,3.55
2019-02-05T02:23:13.420Z,3.55
2019-02-05T02:24:13.699Z,3.55
2019-02-05T02:25:14.115Z,3.55
2019-02-05T02:26:14.670Z,3.55
2019-02-05T02:27:14.090Z,3.55
2019-02-05T02:28:15.615Z,3.55
2019-02-05T02:29:16.274Z,3.55
2019-02-05T02:30:16.762Z,3.55
2019-02-05T02:31:17.281Z,3.55
2019-02-05T02:32:18.071Z,3.55
2019-02-05T02:33:18.905Z,3.55
2019-02-05T02:34:19.543Z,3.54
2019-02-05T02:35:19.896Z,3.54
2019-02-05T02:36:20.368Z,3.54
2019-02-05T02:37:20.869Z,3.54
2019-02-05T02:38:21.199Z,3.53
2019-02-05T02:39:21.722Z,3.53
2019-02-05T02:40:22.181Z,3.53
2019-02-05T02:41:22.603Z,3.53
2019-02-05T02:42:22.017Z,3.53
2019-02-05T02:43:23.626Z,3.53
2019-02-05T02:44:23.101Z,3.53
2019-02-05T02:45:24.490Z,3.53
2019-02-05T02:46:25.055Z,3.53
2019-02-05T02:47:27.713Z,3.53
2019-02-05T02:48:25.114Z,3.53
2019-02-05T02:49:26.599Z,3.53
2019-02-05T02:50:27.162Z,3.53
2019-02-05T02:51:26.721Z,3.53
2019-02-05T02:52:27.318Z,3.53
2019-02-05T02:53:28.777Z,3.53
2019-02-05T02:54:29.241Z,3.53
2019-02-05T02:55:29.627Z,3.53
2019-02-05T02:56:29.139Z,3.53
2019-02-05T02:57:30.827Z,3.53
2019-02-05T02:58:31.342Z,3.53
2019-02-05T02:59:31.863Z,3.53
2019-02-05T03:00:31.737Z,3.52
2019-02-05T03:01:33.220Z,3.52
2019-02-05T03:02:33.969Z,3.52
2019-02-05T03:03:34.663Z,3.52
2019-02-05T03:04:35.262Z,3.52
2019-02-05T03:05:35.678Z,3.51
2019-02-05T03:06:36.301Z,3.51
2019-02-05T03:06:45.435Z,3.47
2019-02-05T03:07:45.764Z,3.47
2019-02-05T03:08:47.381Z,3.47
2019-02-05T03:09:46.942Z,3.47
2019-02-05T03:10:48.406Z,3.47
2019-02-05T03:11:48.728Z,3.47
2019-02-05T03:12:49.227Z,3.47
2019-02-05T03:13:49.867Z,3.47
2019-02-05T03:14:50.149Z,3.46
2019-02-05T03:15:50.598Z,3.46
2019-02-05T03:16:50.080Z,3.46
2019-02-05T03:17:50.551Z,3.46
2019-02-05T03:18:51.299Z,3.46
2019-02-05T03:19:52.733Z,3.46
2019-02-05T03:20:53.213Z,3.46
2019-02-05T03:21:53.601Z,3.46
2019-02-05T03:22:54.129Z,3.45
2019-02-05T03:23:54.640Z,3.45
2019-02-05T03:24:54.081Z,3.45
2019-02-05T03:25:55.611Z,3.45
2019-02-05T03:26:56.197Z,3.46
2019-02-05T03:27:56.756Z,3.46
2019-02-05T03:28:56.171Z,3.46
2019-02-05T03:29:57.747Z,3.46
2019-02-05T03:30:58.206Z,3.46
2019-02-05T03:31:57.615Z,3.46
2019-02-05T03:32:58.445Z,3.46
2019-02-05T03:33:59.937Z,3.46
2019-02-05T03:35:00.410Z,3.46
2019-02-05T03:36:00.822Z,3.46
2019-02-05T03:37:01.554Z,3.46
2019-02-05T03:38:02.046Z,3.46
2019-02-05T03:39:02.677Z,3.46
2019-02-05T03:40:03.503Z,3.46
2019-02-05T03:41:02.969Z,3.46
2019-02-05T03:42:04.535Z,3.46
2019-02-05T03:43:05.091Z,3.46
2019-02-05T03:44:05.582Z,3.46
2019-02-05T03:45:06.299Z,3.46
2019-02-05T03:46:06.728Z,3.46
2019-02-05T03:47:07.180Z,3.46
2019-02-05T03:48:06.803Z,3.46
2019-02-05T03:49:08.184Z,3.46
2019-02-05T03:50:08.617Z,3.46
2019-02-05T03:51:09.291Z,3.46
2019-02-05T03:52:09.702Z,3.46
2019-02-05T03:53:10.347Z,3.46
2019-02-05T03:54:10.960Z,3.46
2019-02-05T03:55:11.663Z,3.45
2019-02-05T03:56:11.146Z,3.45
2019-02-05T03:57:12.510Z,3.45
2019-02-05T03:58:12.950Z,3.45
2019-02-05T03:59:12.545Z,3.45
2019-02-05T04:00:14.116Z,3.45
2019-02-05T04:00:23.188Z,3.47
2019-02-05T04:01:24.873Z,3.47
2019-02-05T04:02:26.656Z,3.47
2019-02-05T04:03:26.336Z,3.47
2019-02-05T04:04:26.719Z,3.47
2019-02-05T04:05:27.147Z,3.46
2019-02-05T04:06:27.914Z,3.46
2019-02-05T04:07:28.416Z,3.46
2019-02-05T04:08:29.071Z,3.46
2019-02-05T04:09:29.678Z,3.46
2019-02-05T04:10:29.997Z,3.46
2019-02-05T04:11:30.563Z,3.47
2019-02-05T04:12:31.065Z,3.47
2019-02-05T04:13:31.439Z,3.47
2019-02-05T04:14:30.870Z,3.47
2019-02-05T04:15:32.231Z,3.47
2019-02-05T04:16:32.629Z,3.47
2019-02-05T04:17:33.178Z,3.47
2019-02-05T04:18:33.767Z,3.47
2019-02-05T04:19:34.400Z,3.47
2019-02-05T04:20:34.945Z,3.47
2019-02-05T04:21:35.738Z,3.46
2019-02-05T04:22:35.260Z,3.46
2019-02-05T04:23:36.277Z,3.46
2019-02-05T04:24:36.751Z,3.46
2019-02-05T04:25:37.276Z,3.46
2019-02-05T04:26:38.067Z,3.46
2019-02-05T04:27:43.915Z,3.46
2019-02-05T04:28:38.292Z,3.46
2019-02-05T04:29:39.670Z,3.46
2019-02-05T04:30:39.065Z,3.46
2019-02-05T04:31:40.383Z,3.47
2019-02-05T04:32:40.839Z,3.47
2019-02-05T04:33:41.109Z,3.47
2019-02-05T04:34:41.381Z,3.48
2019-02-05T04:35:41.716Z,3.48
2019-02-05T04:36:42.439Z,3.48
2019-02-05T04:37:42.805Z,3.48
2019-02-05T04:38:42.346Z,3.49
2019-02-05T04:39:43.764Z,3.49
2019-02-05T04:40:44.544Z,3.49
2019-02-05T04:41:45.585Z,3.49
2019-02-05T04:42:44.921Z,3.49
2019-02-05T04:43:46.345Z,3.49
2019-02-05T04:44:47.076Z,3.49
2019-02-05T04:45:47.709Z,3.49
2019-02-05T04:46:47.242Z,3.49
2019-02-05T04:47:50.010Z,3.49
2019-02-05T04:48:49.596Z,3.48
2019-02-05T04:49:50.317Z,3.48
2019-02-05T04:50:00.216Z,3.40
2019-02-05T04:51:02.910Z,3.40
2019-02-05T04:52:02.266Z,3.40
2019-02-05T04:53:02.756Z,3.40
2019-02-05T04:54:03.148Z,3.40
2019-02-05T04:55:03.600Z,3.40
2019-02-05T04:56:03.169Z,3.40
2019-02-05T04:57:03.967Z,3.40
2019-02-05T04:58:05.538Z,3.41
2019-02-05T04:59:06.432Z,3.41
2019-02-05T05:00:06.974Z,3.41
2019-02-05T05:01:06.770Z,3.41
2019-02-05T05:02:08.279Z,3.41
2019-02-05T05:03:08.726Z,3.41
2019-02-05T05:04:09.323Z,3.42
2019-02-05T05:05:08.630Z,3.41
2019-02-05T05:06:10.280Z,3.41
2019-02-05T05:07:11.017Z,3.41
2019-02-05T05:08:10.694Z,3.41
2019-02-05T05:09:12.688Z,3.41
2019-02-05T05:10:13.151Z,3.41
2019-02-05T05:11:14.655Z,3.41
2019-02-05T05:12:14.463Z,3.41
2019-02-05T05:13:13.787Z,3.40
2019-02-05T05:14:15.262Z,3.39
2019-02-05T05:15:15.747Z,3.39
2019-02-05T05:16:16.638Z,3.38
2019-02-05T05:17:17.394Z,3.37
2019-02-05T05:18:17.848Z,3.36
2019-02-05T05:19:18.391Z,3.35
2019-02-05T05:20:19.334Z,3.35
2019-02-05T05:21:18.949Z,3.34
2019-02-05T05:22:20.434Z,3.34
2019-02-05T05:23:20.194Z,3.33
2019-02-05T05:24:21.512Z,3.33
2019-02-05T05:25:21.939Z,3.32
2019-02-05T05:26:22.784Z,3.32
2019-02-05T05:27:23.225Z,3.31
2019-02-05T05:28:23.595Z,3.31
2019-02-05T05:29:23.114Z,3.30
2019-02-05T05:30:24.635Z,3.29
2019-02-05T05:31:25.141Z,3.29
2019-02-05T05:32:25.649Z,3.28
2019-02-05T05:33:26.043Z,3.28
2019-02-05T05:34:26.505Z,3.27
2019-02-05T05:35:25.921Z,3.27
2019-02-05T05:36:27.376Z,3.26
2019-02-05T05:37:26.957Z,3.26
2019-02-05T05:38:27.609Z,3.25
2019-02-05T05:39:28.152Z,3.24
2019-02-05T05:40:29.711Z,3.23
2019-02-05T05:41:30.248Z,3.22
2019-02-05T05:42:30.749Z,3.22
2019-02-05T05:43:31.247Z,3.21
2019-02-05T05:44:31.768Z,3.20
2019-02-05T05:45:31.238Z,3.20
2019-02-05T05:45:40.295Z,3.12
2019-02-05T05:46:40.660Z,3.12
2019-02-05T05:47:42.443Z,3.12
2019-02-05T05:48:42.069Z,3.12
2019-02-05T05:49:43.813Z,3.12
2019-02-05T05:50:44.334Z,3.12
2019-02-05T05:51:43.707Z,3.12
2019-02-05T05:52:45.112Z,3.12
2019-02-05T05:53:45.574Z,3.12
2019-02-05T05:54:45.894Z,3.12
2019-02-05T05:55:46.031Z,3.12
2019-02-05T05:56:46.144Z,3.12
2019-02-05T05:57:46.663Z,3.12
2019-02-05T05:58:47.415Z,3.12
2019-02-05T05:59:47.848Z,3.12
2019-02-05T06:00:48.527Z,3.12
2019-02-05T06:01:48.112Z,3.12
2019-02-05T06:02:49.698Z,3.13
2019-02-05T06:03:49.135Z,3.13
2019-02-05T06:04:49.177Z,3.13
2019-02-05T06:05:50.537Z,3.13
2019-02-05T06:06:50.851Z,3.13
2019-02-05T06:07:51.353Z,3.13
2019-02-05T06:08:52.044Z,3.14
2019-02-05T06:09:51.557Z,3.14
2019-02-05T06:10:53.126Z,3.14
2019-02-05T06:11:52.791Z,3.14
2019-02-05T06:12:54.214Z,3.14
2019-02-05T06:13:54.465Z,3.15
2019-02-05T06:14:55.025Z,3.15
2019-02-05T06:15:55.044Z,3.15
2019-02-05T06:16:55.620Z,3.15
2019-02-05T06:17:55.453Z,3.16
2019-02-05T06:18:57.052Z,3.16
2019-02-05T06:19:57.854Z,3.16
2019-02-05T06:20:58.375Z,3.16
2019-02-05T06:21:58.629Z,3.16
2019-02-05T06:22:59.127Z,3.16
2019-02-05T06:23:59.581Z,3.16
2019-02-05T06:25:03.234Z,3.16
2019-02-05T06:25:59.623Z,3.16
2019-02-05T06:27:00.313Z,3.16
2019-02-05T06:28:01.738Z,3.16
2019-02-05T06:29:02.456Z,3.16
2019-02-05T06:30:02.868Z,3.16
2019-02-05T06:31:03.503Z,3.16
2019-02-05T06:32:04.235Z,3.16
2019-02-05T06:33:04.745Z,3.16
2019-02-05T06:34:04.659Z,3.16
2019-02-05T06:35:06.384Z,3.16
2019-02-05T06:36:06.898Z,3.17
2019-02-05T06:37:07.773Z,3.17
2019-02-05T06:38:08.451Z,3.17
2019-02-05T06:39:09.287Z,3.17
2019-02-05T06:39:18.858Z,3.21
2019-02-05T06:40:19.916Z,3.21
2019-02-05T06:41:19.861Z,3.21
2019-02-05T06:42:21.294Z,3.21
2019-02-05T06:43:22.138Z,3.21
2019-02-05T06:44:22.783Z,3.21
2019-02-05T06:45:23.476Z,3.21
2019-02-05T06:46:23.948Z,3.21
2019-02-05T06:47:24.694Z,3.21
2019-02-05T06:48:25.016Z,3.21
2019-02-05T06:49:25.333Z,3.21
2019-02-05T06:50:25.845Z,3.22
2019-02-05T06:51:25.692Z,3.22
2019-02-05T06:52:27.331Z,3.22
2019-02-05T06:53:27.906Z,3.23
2019-02-05T06:54:28.502Z,3.23
2019-02-05T06:55:29.108Z,3.23
2019-02-05T06:56:29.610Z,3.23
2019-02-05T06:57:30.179Z,3.23
2019-02-05T06:58:30.830Z,3.24
2019-02-05T06:59:30.432Z,3.24
2019-02-05T07:00:32.053Z,3.24
2019-02-05T07:01:32.465Z,3.24
2019-02-05T07:02:32.933Z,3.24
2019-02-05T07:03:33.302Z,3.24
2019-02-05T07:04:33.720Z,3.24
2019-02-05T07:05:34.191Z,3.24
2019-02-05T07:06:35.056Z,3.24
2019-02-05T07:07:34.866Z,3.24
2019-02-05T07:08:36.307Z,3.25
2019-02-05T07:09:36.686Z,3.25
2019-02-05T07:10:37.406Z,3.25
2019-02-05T07:11:37.887Z,3.25
2019-02-05T07:12:38.527Z,3.25
2019-02-05T07:13:39.177Z,3.25
2019-02-05T07:14:39.811Z,3.25
2019-02-05T07:15:39.295Z,3.25
2019-02-05T07:16:40.758Z,3.25
2019-02-05T07:17:49.357Z,3.24
2019-02-05T07:18:41.120Z,3.24
2019-02-05T07:19:42.686Z,3.24
2019-02-05T07:20:43.225Z,3.25
2019-02-05T07:21:43.903Z,3.25
2019-02-05T07:22:43.397Z,3.25
2019-02-05T07:23:43.946Z,3.25
2019-02-05T07:24:45.448Z,3.25
2019-02-05T07:25:46.115Z,3.25
2019-02-05T07:26:46.950Z,3.25
2019-02-05T07:27:47.617Z,3.25
2019-02-05T07:28:57.936Z,3.26
2019-02-05T07:29:47.637Z,3.26
2019-02-05T07:30:49.395Z,3.27
2019-02-05T07:31:49.201Z,3.27
2019-02-05T07:32:00.736Z,3.27
2019-02-05T07:33:01.106Z,3.27
2019-02-05T07:34:02.997Z,3.27
2019-02-05T07:35:03.559Z,3.27
2019-02-05T07:36:03.095Z,3.27
2019-02-05T07:37:03.615Z,3.27
2019-02-05T07:38:05.028Z,3.28
2019-02-05T07:39:04.487Z,3.28
2019-02-05T07:40:05.762Z,3.28
2019-02-05T07:41:04.740Z,3.28
2019-02-05T07:42:05.339Z,3.29
2019-02-05T07:43:06.107Z,3.29
2019-02-05T07:44:07.857Z,3.29
2019-02-05T07:45:08.687Z,3.30
2019-02-05T07:46:09.215Z,3.30
2019-02-05T07:47:09.706Z,3.31
2019-02-05T07:48:09.453Z,3.32
2019-02-05T07:49:11.203Z,3.32
2019-02-05T07:50:11.802Z,3.33
2019-02-05T07:51:11.431Z,3.33
2019-02-05T07:52:12.971Z,3.34
2019-02-05T07:53:13.918Z,3.34
2019-02-05T07:54:14.466Z,3.35
2019-02-05T07:55:15.112Z,3.36
2019-02-05T07:56:14.919Z,3.36
2019-02-05T07:57:16.686Z,3.37
2019-02-05T07:58:17.586Z,3.37
2019-02-05T07:59:16.552Z,3.38
2019-02-05T08:00:18.581Z,3.38
2019-02-05T08:01:18.442Z,3.39
2019-02-05T08:02:19.081Z,3.39
2019-02-05T08:03:19.805Z,3.40
2019-02-05T08:04:21.536Z,3.41
2019-02-05T08:05:21.447Z,3.42
2019-02-05T08:06:23.168Z,3.43
2019-02-05T08:07:23.698Z,3.44
2019-02-05T08:08:24.292Z,3.44
2019-02-05T08:09:25.245Z,3.45
2019-02-05T08:10:25.968Z,3.46
2019-02-05T08:11:26.132Z,3.47
2019-02-05T08:12:26.634Z,3.48
2019-02-05T08:13:27.244Z,3.49
2019-02-05T08:14:26.757Z,3.50
2019-02-05T08:15:28.488Z,3.51
2019-02-05T08:16:28.883Z,3.52
2019-02-05T08:17:29.542Z,3.53
2019-02-05T08:18:29.247Z,3.53
2019-02-05T08:19:30.974Z,3.54
2019-02-05T08:20:31.626Z,3.54
2019-02-05T08:21:32.284Z,3.54
2019-02-05T08:22:33.067Z,3.55
2019-02-05T08:23:33.893Z,3.55
2019-02-05T08:24:34.411Z,3.56
2019-02-05T08:25:34.513Z,3.56
2019-02-05T08:26:34.186Z,3.57
2019-02-05T08:27:37.155Z,3.57
2019-02-05T08:28:40.983Z,3.58
2019-02-05T08:29:36.131Z,3.59
2019-02-05T08:30:37.233Z,3.60
2019-02-05T08:31:39.259Z,3.61
2019-02-05T08:32:37.264Z,3.61
2019-02-05T08:33:38.954Z,3.62
2019-02-05T08:33:49.009Z,3.67
2019-02-05T08:34:50.614Z,3.67
2019-02-05T08:35:50.409Z,3.67
2019-02-05T08:36:50.532Z,3.67
2019-02-05T08:37:52.132Z,3.67
2019-02-05T08:38:52.689Z,3.67
2019-02-05T08:39:53.365Z,3.67
2019-02-05T08:40:53.563Z,3.67
2019-02-05T08:41:54.374Z,3.67
2019-02-05T08:42:55.322Z,3.68
2019-02-05T08:43:54.994Z,3.68
2019-02-05T08:44:55.622Z,3.68
2019-02-05T08:45:57.339Z,3.68
2019-02-05T08:46:58.176Z,3.69
2019-02-05T08:47:57.745Z,3.69
2019-02-05T08:48:58.582Z,3.70
2019-02-05T08:49:58.936Z,3.70
2019-02-05T08:50:59.207Z,3.71
2019-02-05T08:51:59.399Z,3.71
2019-02-05T08:52:59.893Z,3.72
2019-02-05T08:54:00.572Z,3.72
2019-02-05T08:55:00.954Z,3.73
2019-02-05T08:56:02.666Z,3.74
2019-02-05T08:57:03.968Z,3.74
2019-02-05T08:58:02.764Z,3.75
2019-02-05T08:59:03.495Z,3.76
2019-02-05T09:00:05.340Z,3.76
2019-02-05T09:01:04.385Z,3.77
2019-02-05T09:02:05.090Z,3.77
2019-02-05T09:03:06.124Z,3.78
2019-02-05T09:04:06.090Z,3.78
2019-02-05T09:05:07.827Z,3.79
2019-02-05T09:06:08.868Z,3.80
2019-02-05T09:07:08.808Z,3.81
2019-02-05T09:08:08.900Z,3.82
2019-02-05T09:09:10.916Z,3.82
2019-02-05T09:10:10.282Z,3.83
2019-02-05T09:11:10.756Z,3.83
2019-02-05T09:12:11.083Z,3.84
2019-02-05T09:13:11.109Z,3.84
2019-02-05T09:14:12.923Z,3.85
2019-02-05T09:15:12.425Z,3.86
2019-02-05T09:16:14.293Z,3.87
2019-02-05T09:17:14.058Z,3.88
2019-02-05T09:18:14.249Z,3.89
2019-02-05T09:19:14.201Z,3.90
2019-02-05T09:20:16.094Z,3.90
2019-02-05T09:21:15.093Z,3.91
2019-02-05T09:22:15.243Z,3.91
2019-02-05T09:23:15.730Z,3.91
2019-02-05T09:24:17.441Z,3.92
2019-02-05T09:25:17.931Z,3.93
2019-02-05T09:26:17.178Z,3.93
2019-02-05T09:27:17.164Z,3.94
2019-02-05T09:28:18.848Z,3.95
2019-02-05T09:29:17.720Z,3.96
2019-02-05T09:30:17.975Z,3.97
2019-02-05T09:31:18.072Z,3.98
2019-02-05T09:32:19.827Z,3.99
2019-02-05T09:33:20.557Z,4.00
2019-02-05T09:34:19.972Z,4.01
2019-02-05T09:35:20.231Z,4.02
2019-02-05T09:36:21.076Z,4.02
2019-02-05T09:37:22.822Z,4.03
2019-02-05T09:38:22.083Z,4.03
2019-02-05T09:39:23.369Z,4.04
2019-02-05T09:40:22.913Z,4.05
2019-02-05T09:41:24.535Z,4.06
2019-02-05T09:42:24.034Z,4.06
2019-02-05T09:43:25.817Z,4.07
2019-02-05T09:44:26.362Z,4.09
2019-02-05T09:45:27.148Z,4.10
2019-02-05T09:46:26.407Z,4.10
2019-02-05T09:47:27.931Z,4.11
2019-02-05T09:48:28.253Z,4.12
2019-02-05T09:49:27.840Z,4.13
2019-02-05T09:50:30.906Z,4.14
2019-02-05T09:51:28.757Z,4.16
2019-02-05T09:52:30.336Z,4.17
2019-02-05T09:53:31.268Z,4.18
2019-02-05T09:53:41.432Z,4.45
2019-02-05T09:54:41.294Z,4.45
2019-02-05T09:55:41.834Z,4.45
2019-02-05T09:56:43.746Z,4.45
2019-02-05T09:57:44.365Z,4.45
2019-02-05T09:58:45.048Z,4.45
2019-02-05T09:59:45.730Z,4.46
2019-02-05T10:00:45.490Z,4.47
2019-02-05T10:01:46.494Z,4.49
2019-02-05T10:02:46.092Z,4.50
2019-02-05T10:03:46.234Z,4.51
2019-02-05T10:04:47.868Z,4.53
2019-02-05T10:05:48.527Z,4.55
2019-02-05T10:06:50.086Z,4.56
2019-02-05T10:07:48.626Z,4.58
2019-02-05T10:08:50.393Z,4.60
2019-02-05T10:09:51.473Z,4.62
2019-02-05T10:10:50.571Z,4.64
2019-02-05T10:11:51.270Z,4.66
2019-02-05T10:12:52.956Z,4.68
2019-02-05T10:13:52.510Z,4.69
2019-02-05T10:14:54.263Z,4.71
2019-02-05T10:15:54.861Z,4.72
2019-02-05T10:16:55.476Z,4.73
2019-02-05T10:17:55.463Z,4.75
2019-02-05T10:18:56.107Z,4.77
2019-02-05T10:19:56.429Z,4.79
2019-02-05T10:20:56.239Z,4.81
2019-02-05T10:21:57.983Z,4.83
2019-02-05T10:22:58.035Z,4.85
2019-02-05T10:23:58.066Z,4.86
2019-02-05T10:24:58.772Z,4.88
2019-02-05T10:25:59.491Z,4.90
2019-02-05T10:26:59.337Z,4.92
2019-02-05T10:28:01.131Z,4.93
2019-02-05T10:29:01.732Z,4.95
2019-02-05T10:30:02.481Z,4.97
2019-02-05T10:31:03.165Z,4.99
2019-02-05T10:32:03.818Z,5.01
2019-02-05T10:33:04.960Z,5.03
2019-02-05T10:34:04.721Z,5.05
2019-02-05T10:35:05.697Z,5.06
2019-02-05T10:36:07.266Z,5.08
2019-02-05T10:37:07.974Z,5.10
2019-02-05T10:38:08.920Z,5.12
2019-02-05T10:39:09.664Z,5.14
2019-02-05T10:40:09.723Z,5.16
2019-02-05T10:41:10.657Z,5.17
2019-02-05T10:42:10.484Z,5.19
2019-02-05T10:43:11.327Z,5.20
2019-02-05T10:44:12.591Z,5.22
2019-02-05T10:45:12.578Z,5.23
2019-02-05T10:46:13.254Z,5.25
2019-02-05T10:47:12.833Z,5.26
2019-02-05T10:48:14.546Z,5.28
2019-02-05T10:49:14.077Z,5.29
2019-02-05T10:50:14.986Z,5.31
2019-02-05T10:51:15.831Z,5.33
2019-02-05T10:52:16.482Z,5.34
2019-02-05T10:53:18.097Z,5.36
2019-02-05T10:53:34.181Z,5.70
2019-02-05T10:54:35.482Z,5.70
2019-02-05T10:55:34.864Z,5.70
2019-02-05T10:56:36.417Z,5.70
2019-02-05T10:57:35.451Z,5.70
2019-02-05T10:58:37.083Z,5.70
2019-02-05T10:59:36.920Z,5.71
2019-02-05T11:00:37.657Z,5.72
2019-02-05T11:01:38.334Z,5.73
2019-02-05T11:02:39.095Z,5.74
2019-02-05T11:04:23.392Z,6.07
2019-02-05T11:05:23.865Z,6.07
2019-02-05T11:06:26.555Z,6.07
2019-02-05T11:07:25.731Z,6.07
2019-02-05T11:08:26.519Z,6.08
2019-02-05T11:09:26.751Z,6.08
2019-02-05T11:10:26.856Z,6.09
2019-02-05T11:11:27.151Z,6.09
2019-02-05T11:12:26.954Z,6.10
2019-02-05T11:13:27.499Z,6.10
2019-02-05T11:14:29.029Z,6.11
2019-02-05T11:15:28.452Z,6.12
2019-02-05T11:16:28.985Z,6.13
2019-02-05T11:17:30.597Z,6.14
2019-02-05T11:18:31.172Z,6.15
2019-02-05T11:19:30.909Z,6.16
2019-02-05T11:20:31.951Z,6.17
2019-02-05T11:21:32.700Z,6.18
2019-02-05T11:22:37.695Z,6.18
2019-02-05T11:23:33.522Z,6.19
2019-02-05T11:24:35.415Z,6.19
2019-02-05T11:25:34.646Z,6.19
2019-02-05T11:26:36.763Z,6.20
2019-02-05T11:27:35.996Z,6.21
2019-02-05T11:28:37.640Z,6.22
2019-02-05T11:29:37.323Z,6.23
2019-02-05T11:30:38.122Z,6.23
2019-02-05T11:31:38.878Z,6.24
2019-02-05T11:32:38.940Z,6.25
2019-02-05T11:33:40.815Z,6.26
2019-02-05T11:34:40.561Z,6.27
2019-02-05T11:35:40.779Z,6.27
2019-02-05T11:38:53.267Z,6.23
2019-02-05T11:39:53.488Z,6.23
2019-02-05T11:40:55.204Z,6.23
2019-02-05T11:41:58.085Z,6.23
2019-02-05T11:42:55.822Z,6.23
2019-02-05T11:44:03.678Z,6.23
2019-02-05T11:44:59.057Z,6.23
2019-02-05T11:45:57.723Z,6.23
2019-02-05T11:46:58.352Z,6.23
2019-02-05T11:47:58.600Z,6.23
2019-02-05T11:49:00.272Z,6.23
2019-02-05T11:50:00.427Z,6.23
2019-02-05T11:51:00.549Z,6.23
2019-02-05T11:52:03.453Z,6.22
2019-02-05T11:53:01.112Z,6.23
2019-02-05T11:54:02.767Z,6.23
2019-02-05T11:55:03.344Z,6.24
2019-02-05T11:56:03.109Z,6.25
2019-02-05T11:57:11.339Z,6.25
2019-02-05T11:58:04.681Z,6.26
2019-02-05T11:59:06.423Z,6.26
2019-02-05T12:00:05.770Z,6.25
2019-02-05T12:01:07.455Z,6.25
2019-02-05T12:02:08.127Z,6.25
2019-02-05T12:03:08.339Z,6.24
2019-02-05T12:04:08.267Z,6.24
2019-02-05T12:05:09.949Z,6.24
2019-02-05T12:06:10.248Z,6.24
2019-02-05T12:07:11.129Z,6.24
2019-02-05T12:08:11.808Z,6.23
2019-02-05T12:09:12.361Z,6.23
2019-02-05T12:10:12.934Z,6.23
2019-02-05T12:11:12.782Z,6.23
2019-02-05T12:12:13.424Z,6.23
2019-02-05T12:13:15.368Z,6.23
2019-02-05T12:14:16.238Z,6.23
2019-02-05T12:15:16.930Z,6.23
2019-02-05T12:16:15.949Z,6.23
2019-02-05T12:17:17.590Z,6.23
2019-02-05T12:18:17.226Z,6.23
2019-02-05T12:19:17.943Z,6.24
2019-02-05T12:20:19.535Z,6.24
2019-02-05T12:21:20.220Z,6.25
2019-02-05T12:22:19.869Z,6.25
2019-02-05T12:23:21.643Z,6.26
2019-02-05T12:24:22.505Z,6.26
2019-02-05T12:25:23.081Z,6.27
2019-02-05T12:26:23.821Z,6.28
2019-02-05T12:27:23.478Z,6.29
2019-02-05T12:28:25.087Z,6.31
2019-02-05T12:29:25.766Z,6.33
2019-02-05T12:30:26.538Z,6.34
2019-02-05T12:31:26.912Z,6.36
2019-02-05T12:32:27.646Z,6.38
2019-02-05T12:33:28.549Z,6.39
2019-02-05T12:34:29.427Z,6.41
2019-02-05T12:35:29.036Z,6.42
2019-02-05T12:36:30.889Z,6.43
2019-02-05T12:37:30.650Z,6.44
2019-02-05T12:38:32.412Z,6.44
2019-02-05T12:39:32.932Z,6.45
2019-02-05T12:40:32.058Z,6.46
2019-02-05T12:41:32.925Z,6.46
2019-02-05T12:41:42.012Z,6.57
2019-02-05T12:42:43.634Z,6.57
2019-02-05T12:43:44.491Z,6.57
2019-02-05T12:44:45.219Z,6.57
2019-02-05T12:45:45.093Z,6.57
2019-02-05T12:46:45.921Z,6.57
2019-02-05T12:47:47.647Z,6.57
2019-02-05T12:48:48.348Z,6.57
2019-02-05T12:49:49.016Z,6.57
2019-02-05T12:50:49.739Z,6.57
2019-02-05T12:51:50.374Z,6.58
2019-02-05T12:52:50.197Z,6.58
2019-02-05T12:53:51.063Z,6.59
2019-02-05T12:54:52.925Z,6.60
2019-02-05T12:55:53.779Z,6.61
2019-02-05T12:56:54.574Z,6.62
2019-02-05T12:57:55.264Z,6.64
2019-02-05T12:58:55.986Z,6.65
2019-02-05T12:59:56.802Z,6.67
2019-02-05T13:01:00.190Z,6.69
2019-02-05T13:01:57.568Z,6.71
2019-02-05T13:02:57.835Z,6.72
2019-02-05T13:03:58.721Z,6.74
2019-02-05T13:04:59.514Z,6.76
2019-02-05T13:06:00.344Z,6.78
2019-02-05T13:07:01.111Z,6.80
2019-02-05T13:08:01.867Z,6.81
2019-02-05T13:09:02.521Z,6.82
2019-02-05T13:10:02.406Z,6.83
2019-02-05T13:11:04.234Z,6.85
2019-02-05T13:12:05.064Z,6.86
2019-02-05T13:13:05.640Z,6.87
2019-02-05T13:14:06.561Z,6.89
2019-02-05T13:15:07.331Z,6.90
2019-02-05T13:16:08.113Z,6.92
2019-02-05T13:17:08.788Z,6.93
2019-02-05T13:18:08.929Z,6.93
2019-02-05T13:19:08.575Z,6.94